createdAt,value
2017-09-23T00:00:33.353Z,99.99
2017-09-23T00:01:13.911Z,99.99
2017-09-23T00:01:54.473Z,99.99
2017-09-23T00:02:35.025Z,99.99
2017-09-23T00:03:16.140Z,99.99
2017-09-23T00:03:56.727Z,99.99
2017-09-23T00:04:37.292Z,99.99
2017-09-23T00:05:17.853Z,99.99
2017-09-23T00:05:58.397Z,99.99
2017-09-23T00:06:38.962Z,99.99
2017-09-23T00:07:19.514Z,99.99
2017-09-23T00:08:00.062Z,99.99
2017-09-23T00:08:40.648Z,99.99
2017-09-23T00:09:21.225Z,99.99
2017-09-23T00:10:01.774Z,99.99
2017-09-23T00:10:42.335Z,99.99
2017-09-23T00:11:22.919Z,99.99
2017-09-23T00:12:03.469Z,99.99
2017-09-23T00:12:44.013Z,99.99
2017-09-23T00:13:24.592Z,99.99
2017-09-23T00:14:05.110Z,99.99
2017-09-23T00:14:45.689Z,99.99
2017-09-23T00:15:26.238Z,99.99
2017-09-23T00:16:06.817Z,99.99
2017-09-23T00:16:47.391Z,99.99
2017-09-23T00:17:27.957Z,99.99
2017-09-23T00:18:08.538Z,99.99
2017-09-23T00:18:49.128Z,99.99
2017-09-23T00:19:29.705Z,99.99
2017-09-23T00:20:10.287Z,99.99
2017-09-23T00:20:50.850Z,99.99
2017-09-23T00:21:31.424Z,99.99
2017-09-23T00:22:11.966Z,99.99
2017-09-23T00:22:52.514Z,99.99
2017-09-23T00:23:33.090Z,99.99
2017-09-23T00:24:13.658Z,99.99
2017-09-23T00:24:54.200Z,99.99
2017-09-23T00:25:34.745Z,99.99
2017-09-23T00:26:15.303Z,99.99
2017-09-23T00:26:55.854Z,99.99
2017-09-23T00:27:36.420Z,99.99
2017-09-23T00:28:16.980Z,99.99
2017-09-23T00:28:57.539Z,99.99
2017-09-23T00:29:38.105Z,99.99
2017-09-23T00:30:18.652Z,99.99
2017-09-23T00:30:59.212Z,99.99
2017-09-23T00:31:39.777Z,99.99
2017-09-23T00:32:20.337Z,99.99
2017-09-23T00:33:00.894Z,99.99
2017-09-23T00:33:41.441Z,99.99
2017-09-23T00:34:21.988Z,99.99
2017-09-23T00:35:02.564Z,99.99
2017-09-23T00:35:43.708Z,99.99
2017-09-23T00:36:24.284Z,99.99
2017-09-23T00:37:05.433Z,99.99
2017-09-23T00:37:45.989Z,99.99
2017-09-23T00:38:26.557Z,99.99
2017-09-23T00:39:07.115Z,99.99
2017-09-23T00:39:47.680Z,99.99
2017-09-23T00:40:28.257Z,99.99
2017-09-23T00:41:08.839Z,99.99
2017-09-23T00:41:49.412Z,99.99
2017-09-23T00:42:29.977Z,99.99
2017-09-23T00:43:10.558Z,99.99
2017-09-23T00:43:51.149Z,99.99
2017-09-23T00:44:31.721Z,99.99
2017-09-23T00:45:12.300Z,99.99
2017-09-23T00:45:52.882Z,99.99
2017-09-23T00:46:33.453Z,99.99
2017-09-23T00:47:14.034Z,99.99
2017-09-23T00:47:54.620Z,99.99
2017-09-23T00:48:35.199Z,99.99
2017-09-23T00:49:15.781Z,99.99
2017-09-23T00:49:56.361Z,99.99
2017-09-23T00:50:36.946Z,99.99
2017-09-23T00:51:17.527Z,99.99
2017-09-23T00:51:58.107Z,99.99
2017-09-23T00:52:38.689Z,99.99
2017-09-23T00:53:19.265Z,99.99
2017-09-23T00:53:59.845Z,99.99
2017-09-23T00:54:40.424Z,99.99
2017-09-23T00:55:20.993Z,99.99
2017-09-23T00:56:01.575Z,99.99
2017-09-23T00:56:42.151Z,99.99
2017-09-23T00:57:22.735Z,99.99
2017-09-23T00:58:03.309Z,99.99
2017-09-23T00:58:43.884Z,99.99
2017-09-23T00:59:24.456Z,99.99
2017-09-23T01:00:05.033Z,99.99
2017-09-23T01:00:45.615Z,99.99
2017-09-23T01:01:26.195Z,99.99
2017-09-23T01:02:06.785Z,99.99
2017-09-23T01:02:47.350Z,99.99
2017-09-23T01:03:27.936Z,99.99
2017-09-23T01:04:08.513Z,99.99
2017-09-23T01:04:49.097Z,99.99
2017-09-23T01:05:30.063Z,99.99
2017-09-23T01:06:10.528Z,99.99
2017-09-23T01:06:51.107Z,99.99
2017-09-23T01:07:31.696Z,99.99
2017-09-23T01:08:12.277Z,99.99
2017-09-23T01:08:52.873Z,99.99
2017-09-23T01:09:33.432Z,99.99
2017-09-23T01:10:14.002Z,99.99
2017-09-23T01:10:54.581Z,99.99
2017-09-23T01:11:35.158Z,99.99
2017-09-23T01:12:15.752Z,99.99
2017-09-23T01:12:56.332Z,99.99
2017-09-23T01:13:36.916Z,99.99
2017-09-23T01:14:17.492Z,99.99
2017-09-23T01:14:58.086Z,99.99
2017-09-23T01:15:38.653Z,99.99
2017-09-23T01:16:19.238Z,99.99
2017-09-23T01:16:59.818Z,99.99
2017-09-23T01:17:40.402Z,99.99
2017-09-23T01:18:20.969Z,99.99
2017-09-23T01:19:01.542Z,99.99
2017-09-23T01:19:42.114Z,99.99
2017-09-23T01:20:22.700Z,99.99
2017-09-23T01:21:03.276Z,99.99
2017-09-23T01:21:43.855Z,99.99
2017-09-23T01:22:24.427Z,99.99
2017-09-23T01:23:05.006Z,99.99
2017-09-23T01:23:45.668Z,99.99
2017-09-23T01:24:26.236Z,99.99
2017-09-23T01:25:06.814Z,99.99
2017-09-23T01:25:47.392Z,99.99
2017-09-23T01:26:27.965Z,99.99
2017-09-23T01:27:08.535Z,99.99
2017-09-23T01:27:49.110Z,99.99
2017-09-23T01:28:29.676Z,99.99
2017-09-23T01:29:10.250Z,99.99
2017-09-23T01:29:50.833Z,99.99
2017-09-23T01:30:31.413Z,99.99
2017-09-23T01:31:11.981Z,99.99
2017-09-23T01:31:52.556Z,99.99
2017-09-23T01:32:33.135Z,99.99
2017-09-23T01:33:13.705Z,99.99
2017-09-23T01:33:54.278Z,99.99
2017-09-23T01:34:34.860Z,99.99
2017-09-23T01:35:15.435Z,99.99
2017-09-23T01:35:56.002Z,99.99
2017-09-23T01:36:36.568Z,99.99
2017-09-23T01:37:17.174Z,99.99
2017-09-23T01:37:57.735Z,99.99
2017-09-23T01:38:38.830Z,99.99
2017-09-23T01:39:19.412Z,99.99
2017-09-23T01:39:59.997Z,99.99
2017-09-23T01:40:40.586Z,99.99
2017-09-23T01:41:21.159Z,99.99
2017-09-23T01:42:01.730Z,99.99
2017-09-23T01:42:42.294Z,99.99
2017-09-23T01:43:22.857Z,99.99
2017-09-23T01:44:03.425Z,99.99
2017-09-23T01:44:43.994Z,99.99
2017-09-23T01:45:24.570Z,99.99
2017-09-23T01:46:05.144Z,99.99
2017-09-23T01:46:45.729Z,99.99
2017-09-23T01:47:26.297Z,99.99
2017-09-23T01:48:06.875Z,99.99
2017-09-23T01:48:47.435Z,99.99
2017-09-23T01:49:28.013Z,99.99
2017-09-23T01:50:08.598Z,99.99
2017-09-23T01:50:49.170Z,99.99
2017-09-23T01:51:29.756Z,99.99
2017-09-23T01:52:10.341Z,99.99
2017-09-23T01:52:50.915Z,99.99
2017-09-23T01:53:31.492Z,99.99
2017-09-23T01:54:12.064Z,99.99
2017-09-23T01:54:52.650Z,99.99
2017-09-23T01:55:33.220Z,99.99
2017-09-23T01:56:13.803Z,99.99
2017-09-23T01:56:54.392Z,99.99
2017-09-23T01:57:34.966Z,99.99
2017-09-23T01:58:15.533Z,99.99
2017-09-23T01:58:56.086Z,99.99
2017-09-23T01:59:36.654Z,99.99
2017-09-23T02:00:17.221Z,99.99
2017-09-23T02:00:57.804Z,99.99
2017-09-23T02:01:38.375Z,99.99
2017-09-23T02:02:18.944Z,99.99
2017-09-23T02:02:59.526Z,99.99
2017-09-23T02:03:40.100Z,99.99
2017-09-23T02:04:20.678Z,99.99
2017-09-23T02:05:01.265Z,99.99
2017-09-23T02:05:41.849Z,99.99
2017-09-23T02:06:22.420Z,99.99
2017-09-23T02:07:03.649Z,99.99
2017-09-23T02:07:45.055Z,99.99
2017-09-23T02:08:25.635Z,99.99
2017-09-23T02:09:06.216Z,99.99
2017-09-23T02:09:46.794Z,99.99
2017-09-23T02:10:28.221Z,99.99
2017-09-23T02:11:08.807Z,99.99
2017-09-23T02:11:49.381Z,99.99
2017-09-23T02:12:29.963Z,99.99
2017-09-23T02:13:10.546Z,99.99
2017-09-23T02:13:51.122Z,99.99
2017-09-23T02:14:31.710Z,99.99
2017-09-23T02:15:13.153Z,99.99
2017-09-23T02:15:53.733Z,99.99
2017-09-23T02:16:34.309Z,99.99
2017-09-23T02:17:14.889Z,99.99
2017-09-23T02:17:55.472Z,99.99
2017-09-23T02:18:36.043Z,99.99
2017-09-23T02:19:17.206Z,99.99
2017-09-23T02:19:57.783Z,99.99
2017-09-23T02:20:39.145Z,99.99
2017-09-23T02:21:19.719Z,99.99
2017-09-23T02:22:00.300Z,99.99
2017-09-23T02:22:40.882Z,99.99
2017-09-23T02:23:21.452Z,99.99
2017-09-23T02:24:02.027Z,99.99
2017-09-23T02:24:42.604Z,99.99
2017-09-23T02:25:23.179Z,99.99
2017-09-23T02:26:03.763Z,99.99
2017-09-23T02:26:44.348Z,99.99
2017-09-23T02:27:24.921Z,99.99
2017-09-23T02:28:05.487Z,99.99
2017-09-23T02:28:46.073Z,99.99
2017-09-23T02:29:26.647Z,99.99
2017-09-23T02:30:07.236Z,99.99
2017-09-23T02:30:47.811Z,99.99
2017-09-23T02:31:28.384Z,99.99
2017-09-23T02:32:08.968Z,99.99
2017-09-23T02:32:49.552Z,99.99
2017-09-23T02:33:30.135Z,99.99
2017-09-23T02:34:10.708Z,99.99
2017-09-23T02:34:51.293Z,99.99
2017-09-23T02:35:31.869Z,99.99
2017-09-23T02:36:12.450Z,99.99
2017-09-23T02:36:53.064Z,99.99
2017-09-23T02:37:33.615Z,99.99
2017-09-23T02:38:14.193Z,99.99
2017-09-23T02:38:54.769Z,99.99
2017-09-23T02:39:35.359Z,99.99
2017-09-23T02:40:15.929Z,99.99
2017-09-23T02:40:56.512Z,99.99
2017-09-23T02:41:37.085Z,99.99
2017-09-23T02:42:17.671Z,99.99
2017-09-23T02:42:58.249Z,99.99
2017-09-23T02:43:38.828Z,99.99
2017-09-23T02:44:19.405Z,99.99
2017-09-23T02:44:59.979Z,99.99
2017-09-23T02:45:40.556Z,99.99
2017-09-23T02:46:21.128Z,99.99
2017-09-23T02:47:01.712Z,99.99
2017-09-23T02:47:42.295Z,99.99
2017-09-23T02:48:22.869Z,99.99
2017-09-23T02:49:03.463Z,99.99
2017-09-23T02:49:44.030Z,99.99
2017-09-23T02:50:24.599Z,99.99
2017-09-23T02:51:05.170Z,99.99
2017-09-23T02:51:45.746Z,99.99
2017-09-23T02:52:26.325Z,99.99
2017-09-23T02:53:06.904Z,99.99
2017-09-23T02:53:47.509Z,99.99
2017-09-23T02:54:28.091Z,99.99
2017-09-23T02:55:08.665Z,99.99
2017-09-23T02:55:49.241Z,99.99
2017-09-23T02:56:29.817Z,99.99
2017-09-23T02:57:10.405Z,99.99
2017-09-23T02:57:51.006Z,99.99
2017-09-23T02:58:31.588Z,99.99
2017-09-23T02:59:12.176Z,99.99
2017-09-23T02:59:52.756Z,99.99
2017-09-23T03:00:33.337Z,99.99
2017-09-23T03:01:13.906Z,99.99
2017-09-23T03:01:54.487Z,99.99
2017-09-23T03:02:35.078Z,99.99
2017-09-23T03:03:15.667Z,99.99
2017-09-23T03:03:56.236Z,99.99
2017-09-23T03:04:36.822Z,99.99
2017-09-23T03:05:17.405Z,99.99
2017-09-23T03:05:57.978Z,99.99
2017-09-23T03:06:38.571Z,99.99
2017-09-23T03:07:19.152Z,99.99
2017-09-23T03:07:59.726Z,99.99
2017-09-23T03:08:40.292Z,99.99
2017-09-23T03:09:20.878Z,99.99
2017-09-23T03:10:01.447Z,99.99
2017-09-23T03:10:42.028Z,99.99
2017-09-23T03:11:23.443Z,99.99
2017-09-23T03:12:04.029Z,99.99
2017-09-23T03:12:44.608Z,99.99
2017-09-23T03:13:25.191Z,99.99
2017-09-23T03:14:05.764Z,99.99
2017-09-23T03:14:46.342Z,99.99
2017-09-23T03:15:26.921Z,99.99
2017-09-23T03:16:07.498Z,99.99
2017-09-23T03:16:48.082Z,99.99
2017-09-23T03:17:28.667Z,99.99
2017-09-23T03:18:09.251Z,99.99
2017-09-23T03:18:49.833Z,99.99
2017-09-23T03:19:30.416Z,99.99
2017-09-23T03:20:10.982Z,99.99
2017-09-23T03:20:51.552Z,99.99
2017-09-23T03:21:32.152Z,99.99
2017-09-23T03:22:12.696Z,99.99
2017-09-23T03:22:53.277Z,99.99
2017-09-23T03:23:33.856Z,99.99
2017-09-23T03:24:14.445Z,99.99
2017-09-23T03:24:55.023Z,99.99
2017-09-23T03:25:35.602Z,99.99
2017-09-23T03:26:16.191Z,99.99
2017-09-23T03:26:56.776Z,99.99
2017-09-23T03:27:37.355Z,99.99
2017-09-23T03:28:17.937Z,99.99
2017-09-23T03:28:58.525Z,99.99
2017-09-23T03:29:39.099Z,99.99
2017-09-23T03:30:19.673Z,99.99
2017-09-23T03:31:00.260Z,99.99
2017-09-23T03:31:40.837Z,99.99
2017-09-23T03:32:21.422Z,99.99
2017-09-23T03:33:02.002Z,99.99
2017-09-23T03:33:42.596Z,99.99
2017-09-23T03:34:23.173Z,99.99
2017-09-23T03:35:03.749Z,99.99
2017-09-23T03:35:44.332Z,99.99
2017-09-23T03:36:24.916Z,99.99
2017-09-23T03:37:05.496Z,99.99
2017-09-23T03:37:46.075Z,99.99
2017-09-23T03:38:26.652Z,99.99
2017-09-23T03:39:07.229Z,99.99
2017-09-23T03:41:25.183Z,99.99
2017-09-23T03:42:05.763Z,99.99
2017-09-23T03:42:46.341Z,99.99
2017-09-23T03:43:26.924Z,99.99
2017-09-23T03:44:07.497Z,99.99
2017-09-23T03:44:48.078Z,99.99
2017-09-23T03:45:28.642Z,99.99
2017-09-23T03:46:09.251Z,99.99
2017-09-23T03:46:49.795Z,99.99
2017-09-23T03:47:30.369Z,99.99
2017-09-23T03:48:11.443Z,99.99
2017-09-23T03:48:52.014Z,99.99
2017-09-23T03:49:32.591Z,99.99
2017-09-23T03:50:13.182Z,99.99
2017-09-23T03:50:53.732Z,99.99
2017-09-23T03:51:34.325Z,99.99
2017-09-23T03:52:14.894Z,99.99
2017-09-23T03:52:55.456Z,99.99
2017-09-23T03:53:36.013Z,99.99
2017-09-23T03:54:16.570Z,99.99
2017-09-23T03:54:57.134Z,99.99
2017-09-23T03:55:37.693Z,99.99
2017-09-23T03:56:18.276Z,99.99
2017-09-23T03:58:36.207Z,99.99
2017-09-23T03:59:16.786Z,99.99
2017-09-23T03:59:57.375Z,99.99
2017-09-23T04:00:37.947Z,99.99
2017-09-23T04:01:18.508Z,99.99
2017-09-23T04:01:59.084Z,99.99
2017-09-23T04:02:39.664Z,99.99
2017-09-23T04:03:20.236Z,99.99
2017-09-23T04:05:38.191Z,99.99
2017-09-23T04:06:18.755Z,99.99
2017-09-23T04:06:59.334Z,99.99
2017-09-23T04:07:39.914Z,99.99
2017-09-23T04:08:20.490Z,99.99
2017-09-23T04:09:01.082Z,99.99
2017-09-23T04:09:41.657Z,99.99
2017-09-23T04:10:22.230Z,99.99
2017-09-23T04:11:02.814Z,99.99
2017-09-23T04:11:43.392Z,99.99
2017-09-23T04:12:23.962Z,99.99
2017-09-23T04:13:04.538Z,99.99
2017-09-23T04:13:45.119Z,99.99
2017-09-23T04:14:25.700Z,99.99
2017-09-23T04:15:06.281Z,99.99
2017-09-23T04:17:24.219Z,99.99
2017-09-23T04:18:04.787Z,99.99
2017-09-23T04:18:45.371Z,99.99
2017-09-23T04:19:25.942Z,99.99
2017-09-23T04:20:06.528Z,99.99
2017-09-23T04:20:47.110Z,99.99
2017-09-23T04:21:27.691Z,99.99
2017-09-23T04:22:08.274Z,99.99
2017-09-23T04:22:48.849Z,99.99
2017-09-23T04:23:29.439Z,99.99
2017-09-23T04:24:10.000Z,99.99
2017-09-23T04:24:50.572Z,99.99
2017-09-23T04:25:31.148Z,99.99
2017-09-23T04:26:11.726Z,99.99
2017-09-23T04:26:52.301Z,99.99
2017-09-23T04:27:32.877Z,99.99
2017-09-23T04:28:13.447Z,99.99
2017-09-23T04:28:54.029Z,99.99
2017-09-23T04:29:34.606Z,99.99
2017-09-23T04:30:15.184Z,99.99
2017-09-23T04:30:55.765Z,99.99
2017-09-23T04:31:36.339Z,99.99
2017-09-23T04:32:16.924Z,99.99
2017-09-23T04:32:57.484Z,99.99
2017-09-23T04:33:38.060Z,99.99
2017-09-23T04:34:18.637Z,99.99
2017-09-23T04:34:59.211Z,99.99
2017-09-23T04:35:39.803Z,99.99
2017-09-23T04:36:20.387Z,99.99
2017-09-23T04:37:00.955Z,99.99
2017-09-23T04:37:41.529Z,99.99
2017-09-23T04:38:22.107Z,99.99
2017-09-23T04:39:02.663Z,99.99
2017-09-23T04:39:43.268Z,99.99
2017-09-23T04:40:23.811Z,99.99
2017-09-23T04:41:04.384Z,99.99
2017-09-23T04:41:44.957Z,99.99
2017-09-23T04:42:25.535Z,99.99
2017-09-23T04:43:06.109Z,99.99
2017-09-23T04:43:46.686Z,99.99
2017-09-23T04:44:27.252Z,99.99
2017-09-23T04:45:07.836Z,99.99
2017-09-23T04:45:48.409Z,99.99
2017-09-23T04:46:28.980Z,99.99
2017-09-23T04:47:09.556Z,99.99
2017-09-23T04:47:50.138Z,99.99
2017-09-23T04:48:30.720Z,99.99
2017-09-23T04:49:11.299Z,99.99
2017-09-23T04:49:51.862Z,99.99
2017-09-23T04:50:32.433Z,99.99
2017-09-23T04:51:12.997Z,99.99
2017-09-23T04:51:53.574Z,99.99
2017-09-23T04:52:34.153Z,99.99
2017-09-23T04:53:14.737Z,99.99
2017-09-23T04:53:55.330Z,99.99
2017-09-23T04:54:35.902Z,99.99
2017-09-23T04:55:16.478Z,99.99
2017-09-23T04:55:57.048Z,99.99
2017-09-23T04:56:37.624Z,99.99
2017-09-23T04:57:18.200Z,99.99
2017-09-23T04:57:58.752Z,99.99
2017-09-23T04:58:39.298Z,99.99
2017-09-23T04:59:19.864Z,99.99
2017-09-23T05:00:00.430Z,99.99
2017-09-23T05:00:41.015Z,99.99
2017-09-23T05:01:21.593Z,99.99
2017-09-23T05:02:02.219Z,99.99
2017-09-23T05:02:42.824Z,99.99
2017-09-23T05:03:23.401Z,99.99
2017-09-23T05:04:03.961Z,99.99
2017-09-23T05:04:44.554Z,99.99
2017-09-23T05:05:25.187Z,99.99
2017-09-23T05:06:05.767Z,99.99
2017-09-23T05:06:46.347Z,99.99
2017-09-23T05:07:26.938Z,99.99
2017-09-23T05:08:08.098Z,99.99
2017-09-23T05:08:48.721Z,99.99
2017-09-23T05:09:29.326Z,99.99
2017-09-23T05:10:10.094Z,99.99
2017-09-23T05:10:50.656Z,99.99
2017-09-23T05:11:31.237Z,99.99
2017-09-23T05:12:11.837Z,99.99
2017-09-23T05:12:52.430Z,99.99
2017-09-23T05:13:33.147Z,99.99
2017-09-23T05:14:13.771Z,99.99
2017-09-23T05:14:54.392Z,99.99
2017-09-23T05:15:34.991Z,99.99
2017-09-23T05:16:15.573Z,99.99
2017-09-23T05:16:56.159Z,99.99
2017-09-23T05:17:36.774Z,99.99
2017-09-23T05:18:17.353Z,99.99
2017-09-23T05:18:58.042Z,99.99
2017-09-23T05:19:38.661Z,99.99
2017-09-23T05:20:19.299Z,99.99
2017-09-23T05:20:59.902Z,99.99
2017-09-23T05:21:40.507Z,99.99
2017-09-23T05:22:21.157Z,99.99
2017-09-23T05:23:01.757Z,99.99
2017-09-23T05:23:42.343Z,99.99
2017-09-23T05:24:22.935Z,99.99
2017-09-23T05:25:03.574Z,99.99
2017-09-23T05:25:44.179Z,99.99
2017-09-23T05:26:24.786Z,99.99
2017-09-23T05:27:05.378Z,99.99
2017-09-23T05:27:46.018Z,99.99
2017-09-23T05:28:26.739Z,99.99
2017-09-23T05:29:07.339Z,99.99
2017-09-23T05:29:48.026Z,99.99
2017-09-23T05:30:28.607Z,99.99
2017-09-23T05:31:09.233Z,99.99
2017-09-23T05:31:49.876Z,99.99
2017-09-23T05:32:30.530Z,99.99
2017-09-23T05:33:11.108Z,99.99
2017-09-23T05:33:51.762Z,99.99
2017-09-23T05:34:32.341Z,99.99
2017-09-23T05:35:12.952Z,99.99
2017-09-23T05:35:53.598Z,99.99
2017-09-23T05:36:34.334Z,99.99
2017-09-23T05:37:14.997Z,99.99
2017-09-23T05:37:55.566Z,99.99
2017-09-23T05:38:36.141Z,99.99
2017-09-23T05:39:16.712Z,99.99
2017-09-23T05:39:57.288Z,99.99
2017-09-23T05:40:37.867Z,99.99
2017-09-23T05:41:18.446Z,99.99
2017-09-23T05:41:59.033Z,99.99
2017-09-23T05:42:39.612Z,99.99
2017-09-23T05:43:20.185Z,99.99
2017-09-23T05:44:00.769Z,99.99
2017-09-23T05:44:41.349Z,99.99
2017-09-23T05:45:21.923Z,99.99
2017-09-23T05:46:02.490Z,99.99
2017-09-23T05:46:43.073Z,99.99
2017-09-23T05:47:23.680Z,99.99
2017-09-23T05:48:04.247Z,99.99
2017-09-23T05:48:44.881Z,99.99
2017-09-23T05:49:25.494Z,99.99
2017-09-23T05:50:06.059Z,99.99
2017-09-23T05:50:46.634Z,99.99
2017-09-23T05:51:27.239Z,99.99
2017-09-23T05:52:07.861Z,99.99
2017-09-23T05:52:48.445Z,99.99
2017-09-23T05:53:29.018Z,99.99
2017-09-23T05:54:09.589Z,99.99
2017-09-23T05:54:50.185Z,99.99
2017-09-23T05:55:30.774Z,99.99
2017-09-23T05:56:11.339Z,99.99
2017-09-23T05:56:51.920Z,99.99
2017-09-23T05:57:32.499Z,99.99
2017-09-23T05:58:13.078Z,99.99
2017-09-23T05:58:53.658Z,99.99
2017-09-23T05:59:34.241Z,99.99
2017-09-23T06:00:14.816Z,99.99
2017-09-23T06:00:55.406Z,99.99
2017-09-23T06:01:35.973Z,99.99
2017-09-23T06:02:16.566Z,99.99
2017-09-23T06:02:57.138Z,99.99
2017-09-23T06:03:37.721Z,99.99
2017-09-23T06:04:18.299Z,99.99
2017-09-23T06:04:58.882Z,99.99
2017-09-23T06:05:39.460Z,99.99
2017-09-23T06:06:20.041Z,99.99
2017-09-23T06:07:00.623Z,99.99
2017-09-23T06:07:41.194Z,99.99
2017-09-23T06:08:21.777Z,99.99
2017-09-23T06:09:02.356Z,99.99
2017-09-23T06:09:42.927Z,99.99
2017-09-23T06:10:23.594Z,99.99
2017-09-23T06:11:04.276Z,99.99
2017-09-23T06:11:44.876Z,99.99
2017-09-23T06:12:25.620Z,99.99
2017-09-23T06:13:06.282Z,99.99
2017-09-23T06:13:47.004Z,99.99
2017-09-23T06:14:27.588Z,99.99
2017-09-23T06:15:08.192Z,99.99
2017-09-23T06:15:49.057Z,99.99
2017-09-23T06:16:29.830Z,99.99
2017-09-23T06:17:10.410Z,99.99
2017-09-23T06:17:50.980Z,99.99
2017-09-23T06:18:31.799Z,99.99
2017-09-23T06:19:12.391Z,99.99
2017-09-23T06:19:52.971Z,99.99
2017-09-23T06:20:33.554Z,99.99
2017-09-23T06:21:14.211Z,99.99
2017-09-23T06:21:55.120Z,99.99
2017-09-23T06:22:35.810Z,99.99
2017-09-23T06:23:16.636Z,99.99
2017-09-23T06:23:57.587Z,99.99
2017-09-23T06:24:38.277Z,99.99
2017-09-23T06:25:18.856Z,99.99
2017-09-23T06:25:59.431Z,99.99
2017-09-23T06:26:40.011Z,99.99
2017-09-23T06:27:20.597Z,99.99
2017-09-23T06:28:01.252Z,99.99
2017-09-23T06:28:41.833Z,99.99
2017-09-23T06:29:22.466Z,99.99
2017-09-23T06:30:03.203Z,99.99
2017-09-23T06:30:43.914Z,99.99
2017-09-23T06:31:24.612Z,99.99
2017-09-23T06:32:05.183Z,99.99
2017-09-23T06:32:45.764Z,99.99
2017-09-23T06:33:26.342Z,99.99
2017-09-23T06:34:06.962Z,99.99
2017-09-23T06:34:47.683Z,99.99
2017-09-23T06:35:28.285Z,99.57
2017-09-23T06:36:08.982Z,99.18
2017-09-23T06:36:49.685Z,98.9
2017-09-23T06:37:30.328Z,97.42
2017-09-23T06:38:11.075Z,96.22
2017-09-23T06:38:51.677Z,94.51
2017-09-23T06:39:32.253Z,93.5
2017-09-23T06:40:12.826Z,92.35
2017-09-23T06:40:53.511Z,91.06
2017-09-23T06:41:34.175Z,91.11
2017-09-23T06:42:15.041Z,89.96
2017-09-23T06:42:55.763Z,90.63
2017-09-23T06:43:36.346Z,90.53
2017-09-23T06:44:16.924Z,91.3
2017-09-23T06:44:57.573Z,93.31
2017-09-23T06:45:38.261Z,92.07
2017-09-23T06:46:18.834Z,91.11
2017-09-23T06:46:59.505Z,91.74
2017-09-23T06:47:40.162Z,92.02
2017-09-23T06:48:20.901Z,91.83
2017-09-23T06:49:01.511Z,92.3
2017-09-23T06:49:42.159Z,92.59
2017-09-23T06:50:22.748Z,93.45
2017-09-23T06:51:03.460Z,93.26
2017-09-23T06:51:44.064Z,93.55
2017-09-23T06:52:24.725Z,93.21
2017-09-23T06:53:05.568Z,92.83
2017-09-23T06:53:46.322Z,93.5
2017-09-23T06:54:27.127Z,93.41
2017-09-23T06:55:07.774Z,93.7
2017-09-23T06:55:48.476Z,94.17
2017-09-23T06:56:29.254Z,94.46
2017-09-23T06:57:09.829Z,94.55
2017-09-23T06:57:50.408Z,94.65
2017-09-23T06:58:30.994Z,94.74
2017-09-23T06:59:11.905Z,94.36
2017-09-23T06:59:52.373Z,94.07
2017-09-23T07:00:32.956Z,94.17
2017-09-23T07:01:13.537Z,94.36
2017-09-23T07:01:54.112Z,94.55
2017-09-23T07:02:34.679Z,94.36
2017-09-23T07:03:15.259Z,94.46
2017-09-23T07:03:55.842Z,94.55
2017-09-23T07:04:36.546Z,94.07
2017-09-23T07:05:18.164Z,93.41
2017-09-23T07:05:59.103Z,94.31
2017-09-23T07:06:39.975Z,95.08
2017-09-23T07:07:20.830Z,94.89
2017-09-23T07:08:01.815Z,95.27
2017-09-23T07:08:43.549Z,97.47
2017-09-23T07:09:24.425Z,97.85
2017-09-23T07:10:05.725Z,96.84
2017-09-23T07:10:46.315Z,95.89
2017-09-23T07:11:26.915Z,95.41
2017-09-23T07:12:07.737Z,94.74
2017-09-23T07:12:48.375Z,94.36
2017-09-23T07:13:28.917Z,94.36
2017-09-23T07:14:09.548Z,93.5
2017-09-23T07:14:50.118Z,94.17
2017-09-23T07:15:30.703Z,94.36
2017-09-23T07:16:11.284Z,94.74
2017-09-23T07:16:51.865Z,94.27
2017-09-23T07:17:32.448Z,93.55
2017-09-23T07:18:13.036Z,94.12
2017-09-23T07:18:53.623Z,92.69
2017-09-23T07:19:34.208Z,92.97
2017-09-23T07:20:14.785Z,92.59
2017-09-23T07:20:55.362Z,92.79
2017-09-23T07:21:35.947Z,92.3
2017-09-23T07:22:16.529Z,91.93
2017-09-23T07:22:57.161Z,91.54
2017-09-23T07:23:37.744Z,91.93
2017-09-23T07:24:18.323Z,92.21
2017-09-23T07:24:58.907Z,92.3
2017-09-23T07:25:39.467Z,91.83
2017-09-23T07:26:20.054Z,91.06
2017-09-23T07:27:00.636Z,90.92
2017-09-23T07:27:41.217Z,90.82
2017-09-23T07:28:21.793Z,89.96
2017-09-23T07:29:02.370Z,89.58
2017-09-23T07:29:42.949Z,89.39
2017-09-23T07:30:23.528Z,88.81
2017-09-23T07:31:04.120Z,88.48
2017-09-23T07:31:44.689Z,87.9
2017-09-23T07:32:25.271Z,87.71
2017-09-23T07:33:05.877Z,87.43
2017-09-23T07:33:46.440Z,86.94
2017-09-23T07:34:27.019Z,87.43
2017-09-23T07:35:07.607Z,87.62
2017-09-23T07:35:48.326Z,86.66
2017-09-23T07:36:28.751Z,86.61
2017-09-23T07:37:09.332Z,86.51
2017-09-23T07:37:49.903Z,86.04
2017-09-23T07:38:30.481Z,85.65
2017-09-23T07:39:11.062Z,84.88
2017-09-23T07:39:51.640Z,85.46
2017-09-23T07:40:32.224Z,85.55
2017-09-23T07:41:12.802Z,85.69
2017-09-23T07:41:53.372Z,84.83
2017-09-23T07:42:33.951Z,84.74
2017-09-23T07:43:14.534Z,84.16
2017-09-23T07:43:55.117Z,83.68
2017-09-23T07:44:35.701Z,83.01
2017-09-23T07:45:16.277Z,83.3
2017-09-23T07:45:56.857Z,83.59
2017-09-23T07:46:37.438Z,83.3
2017-09-23T07:47:18.030Z,82.24
2017-09-23T07:47:58.613Z,83.05
2017-09-23T07:48:53.823Z,83.3
2017-09-23T07:49:34.404Z,82.63
2017-09-23T07:50:14.985Z,82.73
2017-09-23T07:50:55.574Z,82.53
2017-09-23T07:51:36.121Z,82.53
2017-09-23T07:52:16.714Z,82.76
2017-09-23T07:52:57.288Z,82.67
2017-09-23T07:53:37.876Z,81.81
2017-09-23T07:54:18.462Z,81.71
2017-09-23T07:54:59.046Z,82.09
2017-09-23T07:55:39.621Z,81.71
2017-09-23T07:56:20.196Z,81.9
2017-09-23T07:57:00.775Z,82.48
2017-09-23T07:57:41.352Z,82.09
2017-09-23T07:58:21.921Z,81.52
2017-09-23T07:59:02.500Z,81.52
2017-09-23T07:59:43.081Z,81.71
2017-09-23T08:00:23.661Z,82.86
2017-09-23T08:01:04.248Z,81.71
2017-09-23T08:01:44.831Z,81.08
2017-09-23T08:02:25.414Z,81.27
2017-09-23T08:03:05.999Z,80.6
2017-09-23T08:03:46.579Z,80.99
2017-09-23T08:04:27.162Z,80.99
2017-09-23T08:05:07.754Z,80.79
2017-09-23T08:05:48.336Z,80.51
2017-09-23T08:06:28.919Z,81.27
2017-09-23T08:07:09.495Z,81.37
2017-09-23T08:07:50.079Z,81.18
2017-09-23T08:08:30.664Z,81.08
2017-09-23T08:09:11.251Z,80.6
2017-09-23T08:09:51.831Z,80.89
2017-09-23T08:10:32.412Z,81.18
2017-09-23T08:11:12.993Z,80.74
2017-09-23T08:11:53.607Z,79.97
2017-09-23T08:12:34.188Z,79.78
2017-09-23T08:13:14.757Z,80.16
2017-09-23T08:13:55.334Z,79.53
2017-09-23T08:14:35.913Z,79.05
2017-09-23T08:15:16.497Z,77.9
2017-09-23T08:15:57.074Z,77.61
2017-09-23T08:16:37.643Z,77.17
2017-09-23T08:17:18.225Z,76.5
2017-09-23T08:17:58.817Z,76.98
2017-09-23T08:18:39.398Z,76.59
2017-09-23T08:19:19.982Z,76.12
2017-09-23T08:20:00.568Z,75.77
2017-09-23T08:20:41.144Z,75.67
2017-09-23T08:21:21.730Z,75.38
2017-09-23T08:22:02.311Z,74.17
2017-09-23T08:22:42.881Z,74.08
2017-09-23T08:23:23.465Z,72.42
2017-09-23T08:24:04.056Z,69.92
2017-09-23T08:24:44.638Z,70.01
2017-09-23T08:25:25.218Z,69.06
2017-09-23T08:26:05.794Z,69.6
2017-09-23T08:26:46.394Z,69.79
2017-09-23T08:27:26.971Z,70.94
2017-09-23T08:28:07.552Z,71.14
2017-09-23T08:28:48.135Z,73.02
2017-09-23T08:29:28.721Z,72.13
2017-09-23T08:30:09.309Z,68.42
2017-09-23T08:30:49.885Z,65.56
2017-09-23T08:31:30.465Z,62.76
2017-09-23T08:32:11.052Z,61.51
2017-09-23T08:32:51.631Z,60.57
2017-09-23T08:33:32.247Z,57.95
2017-09-23T08:34:12.810Z,56.73
2017-09-23T08:34:53.402Z,57.38
2017-09-23T08:35:33.982Z,58.12
2017-09-23T08:36:14.562Z,58.8
2017-09-23T08:36:55.150Z,59.52
2017-09-23T08:37:35.737Z,59.38
2017-09-23T08:38:16.316Z,58.35
2017-09-23T08:38:56.910Z,57.38
2017-09-23T08:39:37.497Z,55.43
2017-09-23T08:40:18.082Z,53.91
2017-09-23T08:40:58.671Z,52.51
2017-09-23T08:41:39.258Z,50.89
2017-09-23T08:42:19.847Z,50.34
2017-09-23T08:43:00.437Z,50.12
2017-09-23T08:43:41.024Z,50.53
2017-09-23T08:44:21.611Z,48.25
2017-09-23T08:45:02.199Z,45.97
2017-09-23T08:45:42.795Z,45.77
2017-09-23T08:46:23.385Z,46.06
2017-09-23T08:47:03.981Z,45.97
2017-09-23T08:47:44.569Z,46.08
2017-09-23T08:48:25.158Z,45.45
2017-09-23T08:49:05.748Z,45.26
2017-09-23T08:49:46.339Z,43.58
2017-09-23T08:50:26.930Z,42.43